Airport View

Enter AWOS ICAO identifier for current METAR.

ex. KFNL

KIAB 221856Z AUTO 02013G22KT 10SM FEW200 29/13 A3018 RMK AO2 PK WND 06028/32 SLP210 T02910125

22 Jul 2019 19:22

Other Area AWOS: KBEC - KAAO - KICT - K3AU

TAF KIAB 221800Z 2218/2324 02015G20KT 9999 FEW050 QNH3015INS BECMG 2301/2302 03009KT 9999 SKC QNH3015INS TX31/2220Z TN17/2312Z